createdAt,value
2022-09-12T00:00:15.942Z,98374.47
2022-09-12T00:02:42.800Z,98363.41
2022-09-12T00:05:09.791Z,98369.56
2022-09-12T00:07:36.736Z,98368.16
2022-09-12T00:10:04.376Z,98362.81
2022-09-12T00:12:31.797Z,98360.13
2022-09-12T00:14:59.368Z,98355.06
2022-09-12T00:17:26.464Z,98354.22
2022-09-12T00:19:53.454Z,98364.09
2022-09-12T00:22:20.745Z,98356.66
2022-09-12T00:24:47.645Z,98354.06
2022-09-12T00:27:14.558Z,98350.13
2022-09-12T00:29:41.558Z,98349.16
2022-09-12T00:32:08.517Z,98344.41
2022-09-12T00:34:36.632Z,98355.34
2022-09-12T00:37:04.130Z,98348.03
2022-09-12T00:39:31.039Z,98353.34
2022-09-12T00:41:58.482Z,98354.94
2022-09-12T00:44:25.227Z,98348.38
2022-09-12T00:47:01.140Z,98344.06
2022-09-12T00:49:48.481Z,98349.91
2022-09-12T00:52:22.718Z,98344.31
2022-09-12T00:55:14.137Z,98345.47
2022-09-12T00:57:52.247Z,98339.06
2022-09-12T01:00:22.579Z,98350.28
2022-09-12T01:02:54.289Z,98331.72
2022-09-12T01:05:24.038Z,98331.94
2022-09-12T01:07:51.858Z,98328.88
2022-09-12T01:10:19.799Z,98328.75
2022-09-12T01:12:48.015Z,98325.63
2022-09-12T01:15:15.092Z,98318.28
2022-09-12T01:18:07.775Z,98319.47
2022-09-12T01:21:11.606Z,98313.91
2022-09-12T01:24:24.608Z,98316.13
2022-09-12T01:27:03.915Z,98312.34
2022-09-12T01:30:08.023Z,98314.72
2022-09-12T01:33:11.654Z,98309.00
2022-09-12T01:36:26.617Z,98308.66
2022-09-12T01:39:06.591Z,98307.72
2022-09-12T01:42:10.172Z,98303.66
2022-09-12T01:44:48.213Z,98309.31
2022-09-12T01:47:34.090Z,98306.53
2022-09-12T01:50:18.684Z,98299.78
2022-09-12T01:53:12.801Z,98305.25
2022-09-12T01:55:50.091Z,98304.22
2022-09-12T01:58:30.025Z,98293.13
2022-09-12T02:01:22.589Z,98302.16
2022-09-12T02:04:04.447Z,98301.13
2022-09-12T02:06:50.354Z,98299.16
2022-09-12T02:09:37.251Z,98298.78
2022-09-12T02:12:08.856Z,98300.09
2022-09-12T02:14:46.580Z,98297.31
2022-09-12T02:17:16.646Z,98297.06
2022-09-12T02:19:51.308Z,98287.66
2022-09-12T02:22:21.810Z,98289.47
2022-09-12T02:24:54.299Z,98282.75
2022-09-12T02:27:42.368Z,98283.91
2022-09-12T02:30:10.919Z,98284.88
2022-09-12T02:33:03.983Z,98276.00
2022-09-12T02:35:43.799Z,98270.88
2022-09-12T02:38:20.406Z,98278.09
2022-09-12T02:40:47.459Z,98282.28
2022-09-12T02:43:14.331Z,98276.53
2022-09-12T02:45:41.509Z,98278.03
2022-09-12T02:48:20.175Z,98273.66
2022-09-12T02:50:47.319Z,98277.44
2022-09-12T02:53:14.578Z,98261.97
2022-09-12T02:55:42.953Z,98264.06
2022-09-12T02:58:19.263Z,98266.16
2022-09-12T03:01:29.651Z,98266.16
2022-09-12T03:04:44.455Z,98258.19
2022-09-12T03:07:21.860Z,98260.94
2022-09-12T03:10:05.421Z,98265.69
2022-09-12T03:13:06.240Z,98263.16
2022-09-12T03:15:53.993Z,98257.31
2022-09-12T03:18:42.056Z,98257.41
2022-09-12T03:21:30.346Z,98257.09
2022-09-12T03:24:09.385Z,98262.19
2022-09-12T03:26:57.738Z,98262.44
2022-09-12T03:29:26.248Z,98256.38
2022-09-12T03:31:57.757Z,98266.84
2022-09-12T03:34:27.171Z,98262.13
2022-09-12T03:36:55.502Z,98260.88
2022-09-12T03:39:27.898Z,98266.81
2022-09-12T03:41:55.884Z,98268.59
2022-09-12T03:44:23.942Z,98265.03
2022-09-12T03:46:51.217Z,98265.19
2022-09-12T03:49:18.379Z,98269.16
2022-09-12T03:51:45.290Z,98280.03
2022-09-12T03:54:12.616Z,98270.81
2022-09-12T03:56:41.151Z,98268.88
2022-09-12T03:59:08.189Z,98266.16
2022-09-12T04:01:35.421Z,98265.53
2022-09-12T04:04:02.682Z,98267.94
2022-09-12T04:06:29.791Z,98265.13
2022-09-12T04:08:57.262Z,98263.03
2022-09-12T04:11:24.243Z,98262.31
2022-09-12T04:13:51.289Z,98263.00
2022-09-12T04:16:19.052Z,98260.00
2022-09-12T04:18:47.020Z,98252.72
2022-09-12T04:21:21.703Z,98257.19
2022-09-12T04:23:49.099Z,98256.66
2022-09-12T04:26:17.852Z,98259.56
2022-09-12T04:28:46.336Z,98257.97
2022-09-12T04:31:18.003Z,98257.53
2022-09-12T04:33:46.259Z,98254.78
2022-09-12T04:36:18.025Z,98263.34
2022-09-12T04:38:47.160Z,98262.63
2022-09-12T04:41:16.185Z,98261.81
2022-09-12T04:43:46.634Z,98263.06
2022-09-12T04:46:16.681Z,98264.69
2022-09-12T04:48:44.160Z,98263.78
2022-09-12T04:51:16.160Z,98264.63
2022-09-12T04:53:47.719Z,98267.22
2022-09-12T04:56:14.816Z,98266.34
2022-09-12T04:58:41.981Z,98262.81
2022-09-12T05:01:18.590Z,98261.13
2022-09-12T05:03:47.398Z,98270.09
2022-09-12T05:06:23.914Z,98256.66
2022-09-12T05:08:52.396Z,98264.91
2022-09-12T05:11:25.500Z,98259.47
2022-09-12T05:13:55.322Z,98266.44
2022-09-12T05:16:23.986Z,98260.47
2022-09-12T05:18:50.967Z,98265.38
2022-09-12T05:21:21.321Z,98260.22
2022-09-12T05:23:57.594Z,98272.84
2022-09-12T05:26:24.746Z,98266.44
2022-09-12T05:28:53.067Z,98265.13
2022-09-12T05:31:26.218Z,98275.03
2022-09-12T05:33:55.414Z,98274.22
2022-09-12T05:36:30.682Z,98273.66
2022-09-12T05:38:59.752Z,98279.56
2022-09-12T05:41:33.976Z,98273.38
2022-09-12T05:44:04.201Z,98282.44
2022-09-12T05:46:37.337Z,98273.38
2022-09-12T05:49:11.401Z,98275.84
2022-09-12T05:51:43.029Z,98276.31
2022-09-12T05:54:14.007Z,98281.56
2022-09-12T05:56:43.084Z,98281.53
2022-09-12T05:59:19.858Z,98286.38
2022-09-12T06:01:47.527Z,98285.13
2022-09-12T06:04:14.698Z,98286.00
2022-09-12T06:06:48.613Z,98284.81
2022-09-12T06:09:17.021Z,98279.66
2022-09-12T06:11:46.199Z,98276.91
2022-09-12T06:14:15.969Z,98284.91
2022-09-12T06:16:43.132Z,98280.91
2022-09-12T06:19:19.824Z,98281.38
2022-09-12T06:21:48.288Z,98273.28
2022-09-12T06:24:17.543Z,98260.50
2022-09-12T06:26:44.966Z,98273.28
2022-09-12T06:29:13.246Z,98262.41
2022-09-12T06:31:42.241Z,98256.59
2022-09-12T06:34:13.938Z,98252.59
2022-09-12T06:36:44.768Z,98250.13
2022-09-12T06:39:17.893Z,98254.69
2022-09-12T06:41:45.597Z,98263.97
2022-09-12T06:44:16.689Z,98262.00
2022-09-12T06:46:44.398Z,98267.75
2022-09-12T06:49:12.133Z,98264.44
2022-09-12T06:51:39.282Z,98257.91
2022-09-12T06:54:06.186Z,98259.25
2022-09-12T06:56:33.651Z,98252.84
2022-09-12T06:59:00.561Z,98264.69
2022-09-12T07:01:31.045Z,98265.19
2022-09-12T07:04:04.016Z,98261.72
2022-09-12T07:06:40.763Z,98256.44
2022-09-12T07:09:11.330Z,98268.03
2022-09-12T07:11:41.082Z,98264.75
2022-09-12T07:14:12.735Z,98270.03
2022-09-12T07:16:40.121Z,98265.03
2022-09-12T07:19:08.479Z,98262.06
2022-09-12T07:21:40.326Z,98260.06
2022-09-12T07:24:10.002Z,98259.13
2022-09-12T07:26:38.080Z,98260.59
2022-09-12T07:29:25.514Z,98266.41
2022-09-12T07:31:52.092Z,98259.41
2022-09-12T07:34:19.215Z,98267.13
2022-09-12T07:36:46.256Z,98269.66
2022-09-12T07:39:13.180Z,98274.13
2022-09-12T07:41:40.167Z,98273.47
2022-09-12T07:44:07.228Z,98268.91
2022-09-12T07:46:35.141Z,98273.91
2022-09-12T07:49:02.989Z,98265.44
2022-09-12T07:51:31.488Z,98257.97
2022-09-12T07:53:59.428Z,98263.47
2022-09-12T07:56:32.696Z,98264.59
2022-09-12T07:59:01.694Z,98262.72
2022-09-12T08:01:28.695Z,98262.97
2022-09-12T08:04:00.344Z,98263.34
2022-09-12T08:06:30.975Z,98264.59
2022-09-12T08:08:59.376Z,98272.94
2022-09-12T08:11:28.799Z,98278.56
2022-09-12T08:13:58.055Z,98273.81
2022-09-12T08:16:28.485Z,98277.09
2022-09-12T08:18:55.661Z,98280.06
2022-09-12T08:21:31.563Z,98276.88
2022-09-12T08:24:04.943Z,98277.34
2022-09-12T08:26:33.672Z,98269.81
2022-09-12T08:29:01.414Z,98268.75
2022-09-12T08:31:28.612Z,98254.78
2022-09-12T08:33:58.968Z,98260.38
2022-09-12T08:36:28.030Z,98264.94
2022-09-12T08:39:02.673Z,98256.91
2022-09-12T08:41:47.885Z,98263.88
2022-09-12T08:44:59.889Z,98256.56
2022-09-12T08:47:33.022Z,98262.06
2022-09-12T08:50:09.518Z,98258.44
2022-09-12T08:52:58.424Z,98234.41
2022-09-12T08:55:44.858Z,98251.78
2022-09-12T08:58:16.084Z,98247.16
2022-09-12T09:00:55.776Z,98242.50
2022-09-12T09:04:01.421Z,98244.84
2022-09-12T09:07:02.554Z,98240.72
2022-09-12T09:10:09.252Z,98235.97
2022-09-12T09:13:04.774Z,98238.75
2022-09-12T09:16:16.095Z,98241.44
2022-09-12T09:18:46.074Z,98241.09
2022-09-12T09:21:33.586Z,98239.56
2022-09-12T09:24:14.281Z,98231.25
2022-09-12T09:26:49.617Z,98230.88
2022-09-12T09:29:23.676Z,98224.72
2022-09-12T09:31:55.848Z,98219.00
2022-09-12T09:34:26.244Z,98223.03
2022-09-12T09:37:19.576Z,98221.00
2022-09-12T09:40:15.712Z,98216.06
2022-09-12T09:43:16.946Z,98222.31
2022-09-12T09:45:47.308Z,98222.59
2022-09-12T09:48:46.731Z,98216.69
2022-09-12T09:51:17.795Z,98219.63
2022-09-12T09:54:23.566Z,98222.00
2022-09-12T09:56:51.075Z,98218.81
2022-09-12T09:59:31.263Z,98215.03
2022-09-12T10:02:03.779Z,98216.41
2022-09-12T10:04:41.076Z,98221.03
2022-09-12T10:07:19.638Z,98209.72
2022-09-12T10:10:11.136Z,98215.56
2022-09-12T10:12:38.157Z,98208.53
2022-09-12T10:15:26.475Z,98211.22
2022-09-12T10:17:55.826Z,98207.38
2022-09-12T10:20:44.682Z,98208.75
2022-09-12T10:23:45.216Z,98213.06
2022-09-12T10:26:16.238Z,98209.31
2022-09-12T10:28:52.417Z,98201.19
2022-09-12T10:31:41.492Z,98207.31
2022-09-12T10:34:30.542Z,98204.31
2022-09-12T10:37:19.666Z,98206.00
2022-09-12T10:39:55.119Z,98207.88
2022-09-12T10:42:50.310Z,98206.78
2022-09-12T10:45:24.665Z,98211.16
2022-09-12T10:47:53.768Z,98205.50
2022-09-12T10:50:30.249Z,98206.59
2022-09-12T10:53:20.454Z,98193.03
2022-09-12T10:56:13.702Z,98193.06
2022-09-12T10:59:19.956Z,98190.97
2022-09-12T11:02:15.690Z,98195.72
2022-09-12T11:04:46.734Z,98186.63
2022-09-12T11:07:46.816Z,98187.91
2022-09-12T11:11:00.089Z,98183.41
2022-09-12T11:13:47.735Z,98174.53
2022-09-12T11:16:41.084Z,98173.78
2022-09-12T11:19:37.323Z,98176.19
2022-09-12T11:22:28.731Z,98161.66
2022-09-12T11:25:10.476Z,98162.72
2022-09-12T11:27:52.205Z,98160.53
2022-09-12T11:30:19.061Z,98165.69
2022-09-12T11:33:05.786Z,98159.56
2022-09-12T11:35:35.842Z,98155.25
2022-09-12T11:38:33.002Z,98156.75
2022-09-12T11:41:06.469Z,98149.66
2022-09-12T11:44:01.197Z,98148.47
2022-09-12T11:46:35.008Z,98151.00
2022-09-12T11:49:13.700Z,98155.53
2022-09-12T11:52:15.965Z,98152.25
2022-09-12T11:54:53.867Z,98149.66
2022-09-12T11:57:46.109Z,98140.44
2022-09-12T12:00:38.136Z,98142.41
2022-09-12T12:03:23.703Z,98152.88
2022-09-12T12:06:04.939Z,98149.13
2022-09-12T12:08:41.082Z,98139.41
2022-09-12T12:11:09.083Z,98130.16
2022-09-12T12:13:56.226Z,98127.31
2022-09-12T12:16:35.215Z,98121.63
2022-09-12T12:19:27.334Z,98122.31
2022-09-12T12:21:54.337Z,98116.63
2022-09-12T12:24:24.187Z,98125.28
2022-09-12T12:26:53.612Z,98116.88
2022-09-12T12:29:20.521Z,98113.44
2022-09-12T12:31:59.418Z,98114.75
2022-09-12T12:34:46.193Z,98115.91
2022-09-12T12:37:19.034Z,98113.19
2022-09-12T12:39:46.759Z,98110.59
2022-09-12T12:42:35.437Z,98107.03
2022-09-12T12:45:04.456Z,98091.66
2022-09-12T12:47:46.254Z,98098.84
2022-09-12T12:50:21.789Z,98091.94
2022-09-12T12:52:55.653Z,98094.31
2022-09-12T12:55:31.253Z,98091.69
2022-09-12T12:58:01.312Z,98078.28
2022-09-12T13:00:39.830Z,98076.03
2022-09-12T13:03:06.864Z,98076.97
2022-09-12T13:05:54.368Z,98074.13
2022-09-12T13:08:31.682Z,98079.69
2022-09-12T13:11:07.778Z,98071.03
2022-09-12T13:13:58.265Z,98061.81
2022-09-12T13:16:37.358Z,98054.41
2022-09-12T13:19:14.945Z,98055.56
2022-09-12T13:22:07.836Z,98059.03
2022-09-12T13:24:44.649Z,98062.94
2022-09-12T13:27:25.693Z,98060.81
2022-09-12T13:30:15.209Z,98061.59
2022-09-12T13:32:43.576Z,98052.94
2022-09-12T13:35:34.218Z,98056.31
2022-09-12T13:38:32.824Z,98050.03
2022-09-12T13:41:36.765Z,98040.91
2022-09-12T13:44:09.756Z,98041.09
2022-09-12T13:46:37.298Z,98039.03
2022-09-12T13:49:35.994Z,98038.34
2022-09-12T13:52:21.236Z,98041.63
2022-09-12T13:54:52.313Z,98030.59
2022-09-12T13:57:38.425Z,98031.44
2022-09-12T14:00:22.324Z,98017.63
2022-09-12T14:02:49.444Z,98022.72
2022-09-12T14:05:25.791Z,98017.19
2022-09-12T14:08:00.438Z,98011.88
2022-09-12T14:10:40.807Z,98008.13
2022-09-12T14:13:22.324Z,98002.28
2022-09-12T14:15:52.999Z,98006.03
2022-09-12T14:18:30.134Z,98003.66
2022-09-12T14:21:06.151Z,98008.34
2022-09-12T14:23:36.661Z,98000.38
2022-09-12T14:26:11.411Z,97998.00
2022-09-12T14:28:42.242Z,97996.25
2022-09-12T14:31:18.384Z,97999.34
2022-09-12T14:34:12.341Z,98001.31
2022-09-12T14:36:56.112Z,97987.34
2022-09-12T14:39:33.080Z,97985.97
2022-09-12T14:42:20.964Z,97987.19
2022-09-12T14:45:01.301Z,97987.47
2022-09-12T14:47:38.706Z,97983.94
2022-09-12T14:50:20.387Z,97988.41
2022-09-12T14:53:03.090Z,97978.31
2022-09-12T14:55:33.636Z,97978.13
2022-09-12T14:58:29.932Z,97984.13
2022-09-12T15:01:05.906Z,97976.22
2022-09-12T15:03:36.795Z,97984.63
2022-09-12T15:06:09.637Z,97973.78
2022-09-12T15:08:36.619Z,97982.75
2022-09-12T15:11:07.130Z,97979.84
2022-09-12T15:13:41.678Z,97982.16
2022-09-12T15:16:11.668Z,97975.91
2022-09-12T15:18:39.135Z,97975.84
2022-09-12T15:21:08.694Z,97971.88
2022-09-12T15:23:48.142Z,97975.56
2022-09-12T15:26:19.400Z,97969.13
2022-09-12T15:28:46.691Z,97974.69
2022-09-12T15:31:26.695Z,97958.78
2022-09-12T15:33:54.956Z,97957.03
2022-09-12T15:36:23.489Z,97959.25
2022-09-12T15:38:51.124Z,97957.34
2022-09-12T15:41:22.004Z,97955.47
2022-09-12T15:43:50.323Z,97961.72
2022-09-12T15:46:19.002Z,97962.28
2022-09-12T15:48:46.606Z,97940.84
2022-09-12T15:51:18.622Z,97948.25
2022-09-12T15:53:46.923Z,97951.00
2022-09-12T15:56:16.807Z,97953.63
2022-09-12T15:58:57.860Z,97953.16
2022-09-12T16:01:25.731Z,97948.69
2022-09-12T16:04:00.287Z,97944.19
2022-09-12T16:06:33.553Z,97938.72
2022-09-12T16:09:02.060Z,97939.22
2022-09-12T16:11:29.030Z,97938.31
2022-09-12T16:13:56.921Z,97932.69
2022-09-12T16:16:23.963Z,97937.28
2022-09-12T16:18:54.375Z,97932.84
2022-09-12T16:21:21.330Z,97925.88
2022-09-12T16:23:48.709Z,97922.88
2022-09-12T16:26:16.826Z,97915.00
2022-09-12T16:28:44.256Z,97920.88
2022-09-12T16:31:13.805Z,97921.91
2022-09-12T16:33:42.934Z,97913.78
2022-09-12T16:36:13.849Z,97910.47
2022-09-12T16:38:51.059Z,97906.44
2022-09-12T16:41:21.164Z,97907.19
2022-09-12T16:43:48.753Z,97911.16
2022-09-12T16:46:20.640Z,97907.47
2022-09-12T16:48:54.468Z,97902.72
2022-09-12T16:51:25.869Z,97903.50
2022-09-12T16:53:54.311Z,97917.00
2022-09-12T16:56:21.573Z,97906.03
2022-09-12T16:58:49.011Z,97909.31
2022-09-12T17:01:20.165Z,97918.47
2022-09-12T17:03:55.670Z,97911.50
2022-09-12T17:06:27.114Z,97902.31
2022-09-12T17:08:58.165Z,97901.09
2022-09-12T17:11:32.514Z,97907.06
2022-09-12T17:14:05.822Z,97903.03
2022-09-12T17:16:36.665Z,97908.03
2022-09-12T17:19:04.505Z,97913.34
2022-09-12T17:21:31.667Z,97910.56
2022-09-12T17:23:59.330Z,97911.97
2022-09-12T17:26:26.793Z,97911.91
2022-09-12T17:28:53.825Z,97903.81
2022-09-12T17:31:21.085Z,97902.28
2022-09-12T17:33:48.241Z,97902.41
2022-09-12T17:36:17.835Z,97905.59
2022-09-12T17:38:46.945Z,97911.22
2022-09-12T17:41:23.440Z,97909.13
2022-09-12T17:43:56.503Z,97913.78
2022-09-12T17:46:36.794Z,97907.97
2022-09-12T17:49:07.842Z,97920.84
2022-09-12T17:51:35.310Z,97919.97
2022-09-12T17:54:16.360Z,97920.72
2022-09-12T17:56:45.984Z,97921.44
2022-09-12T17:59:21.933Z,97917.88
2022-09-12T18:02:07.915Z,97922.19
2022-09-12T18:04:34.892Z,97931.47
2022-09-12T18:07:02.231Z,97936.38
2022-09-12T18:09:30.866Z,97935.16
2022-09-12T18:11:58.436Z,97936.78
2022-09-12T18:14:28.505Z,97944.91
2022-09-12T18:16:57.109Z,97937.81
2022-09-12T18:19:25.039Z,97935.25
2022-09-12T18:21:51.975Z,97929.25
2022-09-12T18:24:19.176Z,97930.31
2022-09-12T18:26:46.126Z,97933.63
2022-09-12T18:29:16.801Z,97932.84
2022-09-12T18:31:44.584Z,97929.66
2022-09-12T18:34:14.877Z,97924.03
2022-09-12T18:36:44.401Z,97932.84
2022-09-12T18:39:12.701Z,97930.81
2022-09-12T18:41:40.671Z,97931.16
2022-09-12T18:44:10.519Z,97934.09
2022-09-12T18:46:40.282Z,97923.66
2022-09-12T18:49:09.508Z,97916.38
2022-09-12T18:51:39.906Z,97919.66
2022-09-12T18:54:13.002Z,97920.00
2022-09-12T18:56:43.472Z,97926.06
2022-09-12T18:59:13.015Z,97927.19
2022-09-12T19:01:40.346Z,97934.47
2022-09-12T19:04:09.895Z,97935.00
2022-09-12T19:06:43.555Z,97924.25
2022-09-12T19:09:13.151Z,97924.47
2022-09-12T19:11:48.698Z,97922.03
2022-09-12T19:14:26.127Z,97922.06
2022-09-12T19:16:53.760Z,97915.06
2022-09-12T19:19:21.283Z,97931.22
2022-09-12T19:21:48.195Z,97928.22
2022-09-12T19:24:17.616Z,97927.44
2022-09-12T19:26:45.552Z,97921.78
2022-09-12T19:29:13.845Z,97925.81
2022-09-12T19:31:40.952Z,97928.53
2022-09-12T19:34:08.683Z,97927.41
2022-09-12T19:36:51.707Z,97916.13
2022-09-12T19:39:19.977Z,97916.34
2022-09-12T19:41:47.547Z,97911.75
2022-09-12T19:44:14.754Z,97903.88
2022-09-12T19:46:41.942Z,97903.09
2022-09-12T19:49:11.807Z,97905.34
2022-09-12T19:51:38.925Z,97906.44
2022-09-12T19:54:06.129Z,97908.06
2022-09-12T19:56:33.518Z,97907.78
2022-09-12T19:59:00.478Z,97904.25
2022-09-12T20:01:28.458Z,97903.19
2022-09-12T20:03:57.347Z,97908.03
2022-09-12T20:06:25.121Z,97903.75
2022-09-12T20:08:52.013Z,97908.56
2022-09-12T20:11:21.639Z,97907.81
2022-09-12T20:13:48.983Z,97909.63
2022-09-12T20:16:29.081Z,97900.28
2022-09-12T20:19:02.729Z,97907.97
2022-09-12T20:21:32.204Z,97896.09
2022-09-12T20:24:10.487Z,97905.66
2022-09-12T20:26:37.761Z,97897.91
2022-09-12T20:29:06.325Z,97903.47
2022-09-12T20:31:34.752Z,97903.56
2022-09-12T20:34:02.012Z,97901.75
2022-09-12T20:36:29.031Z,97893.69
2022-09-12T20:39:00.188Z,97902.06
2022-09-12T20:41:30.790Z,97889.81
2022-09-12T20:43:58.138Z,97893.03
2022-09-12T20:46:27.095Z,97886.91
2022-09-12T20:48:54.831Z,97895.63
2022-09-12T20:51:22.564Z,97900.22
2022-09-12T20:54:11.131Z,97898.84
2022-09-12T20:56:38.339Z,97885.84
2022-09-12T20:59:05.953Z,97887.53
2022-09-12T21:01:33.225Z,97877.84
2022-09-12T21:04:01.227Z,97882.13
2022-09-12T21:06:28.379Z,97882.31
2022-09-12T21:09:00.517Z,97880.53
2022-09-12T21:11:28.701Z,97882.44
2022-09-12T21:13:55.819Z,97872.94
2022-09-12T21:16:23.624Z,97880.22
2022-09-12T21:18:59.506Z,97875.72
2022-09-12T21:21:26.913Z,97879.44
2022-09-12T21:23:57.707Z,97881.13
2022-09-12T21:26:24.746Z,97895.41
2022-09-12T21:28:51.620Z,97893.63
2022-09-12T21:31:18.598Z,97887.84
2022-09-12T21:33:45.634Z,97888.19
2022-09-12T21:36:12.602Z,97886.53
2022-09-12T21:38:39.499Z,97882.00
2022-09-12T21:41:12.403Z,97893.34
2022-09-12T21:43:39.575Z,97896.41
2022-09-12T21:46:08.091Z,97886.19
2022-09-12T21:48:35.886Z,97885.56
2022-09-12T21:51:03.591Z,97889.41
2022-09-12T21:53:31.095Z,97891.28
2022-09-12T21:56:07.428Z,97878.38
2022-09-12T21:58:35.995Z,97888.69
2022-09-12T22:01:04.691Z,97882.97
2022-09-12T22:03:32.146Z,97892.84
2022-09-12T22:06:02.119Z,97883.19
2022-09-12T22:08:30.979Z,97870.25
2022-09-12T22:11:00.687Z,97883.88
2022-09-12T22:13:31.341Z,97890.66
2022-09-12T22:15:58.640Z,97870.78
2022-09-12T22:18:25.806Z,97882.25
2022-09-12T22:21:19.713Z,97864.59
2022-09-12T22:24:05.668Z,97869.41
2022-09-12T22:26:42.146Z,97861.50
2022-09-12T22:29:10.385Z,97847.78
2022-09-12T22:31:38.209Z,97840.66
2022-09-12T22:34:06.111Z,97835.06
2022-09-12T22:36:36.989Z,97835.28
2022-09-12T22:39:06.096Z,97833.69
2022-09-12T22:41:33.031Z,97825.28
2022-09-12T22:43:59.963Z,97823.31
2022-09-12T22:46:27.573Z,97816.97
2022-09-12T22:48:55.637Z,97816.50
2022-09-12T22:51:22.810Z,97811.59
2022-09-12T22:53:49.787Z,97817.69
2022-09-12T22:56:17.143Z,97802.59
2022-09-12T22:58:44.067Z,97809.78
2022-09-12T23:01:11.621Z,97812.22
2022-09-12T23:03:38.687Z,97806.19
2022-09-12T23:06:06.464Z,97813.09
2022-09-12T23:08:36.170Z,97814.84
2022-09-12T23:11:10.838Z,97818.56
2022-09-12T23:13:39.095Z,97827.13
2022-09-12T23:16:08.083Z,97831.13
2022-09-12T23:18:36.167Z,97830.81
2022-09-12T23:21:07.681Z,97833.00
2022-09-12T23:23:35.833Z,97825.34
2022-09-12T23:26:04.794Z,97821.28
2022-09-12T23:28:32.245Z,97826.00
2022-09-12T23:31:00.443Z,97830.47
2022-09-12T23:33:29.489Z,97827.22
2022-09-12T23:36:12.805Z,97833.66
2022-09-12T23:38:41.604Z,97839.94
2022-09-12T23:41:09.647Z,97839.22
2022-09-12T23:43:37.002Z,97840.94
2022-09-12T23:46:04.651Z,97835.94
2022-09-12T23:48:32.269Z,97837.34
2022-09-12T23:51:00.084Z,97835.47
2022-09-12T23:53:27.644Z,97833.06
2022-09-12T23:55:54.635Z,97826.94
2022-09-12T23:58:22.710Z,97834.09
